createdAt,value
2018-05-24T00:01:27.721Z,11.70
2018-05-24T00:04:03.734Z,11.60
2018-05-24T00:06:38.390Z,11.60
2018-05-24T00:09:12.859Z,11.60
2018-05-24T00:11:47.430Z,11.60
2018-05-24T00:14:22.019Z,11.50
2018-05-24T00:16:56.583Z,11.40
2018-05-24T00:19:31.197Z,11.40
2018-05-24T00:22:05.865Z,11.40
2018-05-24T00:24:40.410Z,11.50
2018-05-24T00:27:15.003Z,11.60
2018-05-24T00:29:50.489Z,11.50
2018-05-24T00:32:24.930Z,11.50
2018-05-24T00:34:59.573Z,11.60
2018-05-24T00:37:34.090Z,11.60
2018-05-24T00:40:08.677Z,11.60
2018-05-24T00:42:44.029Z,11.70
2018-05-24T00:45:19.327Z,11.70
2018-05-24T00:47:53.811Z,11.70
2018-05-24T00:50:28.307Z,11.70
2018-05-24T00:53:02.867Z,11.70
2018-05-24T00:55:42.087Z,11.60
2018-05-24T00:58:16.712Z,11.70
2018-05-24T01:00:51.193Z,11.80
2018-05-24T01:03:25.758Z,12.10
2018-05-24T01:06:00.356Z,12.10
2018-05-24T01:08:34.954Z,12.00
2018-05-24T01:11:09.500Z,12.00
2018-05-24T01:13:44.058Z,12.10
2018-05-24T01:16:18.631Z,12.00
2018-05-24T01:18:53.121Z,11.80
2018-05-24T01:21:28.526Z,11.70
2018-05-24T01:24:03.114Z,11.70
2018-05-24T01:26:38.460Z,11.60
2018-05-24T01:29:13.771Z,11.60
2018-05-24T01:31:48.346Z,11.60
2018-05-24T01:34:22.796Z,11.60
2018-05-24T01:37:09.415Z,11.80
2018-05-24T01:39:43.982Z,11.80
2018-05-24T01:42:18.617Z,12.00
2018-05-24T01:44:53.209Z,11.90
2018-05-24T01:47:27.827Z,11.80
2018-05-24T01:50:02.375Z,11.80
2018-05-24T01:52:36.787Z,11.80
2018-05-24T01:55:11.409Z,11.80
2018-05-24T01:57:46.070Z,11.80
2018-05-24T02:00:20.694Z,11.70
2018-05-24T02:02:56.062Z,11.50
2018-05-24T02:05:30.500Z,11.50
2018-05-24T02:08:05.067Z,11.30
2018-05-24T02:10:39.656Z,11.30
2018-05-24T02:13:14.149Z,11.10
2018-05-24T02:15:48.688Z,11.00
2018-05-24T02:18:23.298Z,10.90
2018-05-24T02:20:57.840Z,10.80
2018-05-24T02:23:32.285Z,10.70
2018-05-24T02:26:06.810Z,10.60
2018-05-24T02:28:42.160Z,10.50
2018-05-24T02:31:17.473Z,10.40
2018-05-24T02:33:52.198Z,10.40
2018-05-24T02:36:26.617Z,10.40
2018-05-24T02:39:01.220Z,10.40
2018-05-24T02:41:36.597Z,10.30
2018-05-24T02:44:11.163Z,10.30
2018-05-24T02:46:45.735Z,10.30
2018-05-24T02:49:20.287Z,10.30
2018-05-24T02:51:54.846Z,10.20
2018-05-24T02:54:29.433Z,10.10
2018-05-24T02:57:04.011Z,10.10
2018-05-24T02:59:38.574Z,10.10
2018-05-24T03:02:12.970Z,10.00
2018-05-24T03:04:47.415Z,10.00
2018-05-24T03:07:21.954Z,10.00
2018-05-24T03:09:57.388Z,9.90
2018-05-24T03:12:31.782Z,9.90
2018-05-24T03:15:07.146Z,9.90
2018-05-24T03:17:41.764Z,9.90
2018-05-24T03:20:16.286Z,9.80
2018-05-24T03:22:50.902Z,9.90
2018-05-24T03:25:25.569Z,9.90
2018-05-24T03:28:00.146Z,9.90
2018-05-24T03:30:36.245Z,9.80
2018-05-24T03:33:10.720Z,9.80
2018-05-24T03:35:45.285Z,9.90
2018-05-24T03:38:19.783Z,9.80
2018-05-24T03:40:55.134Z,10.00
2018-05-24T03:43:29.837Z,9.90
2018-05-24T03:46:04.309Z,10.00
2018-05-24T03:48:38.800Z,10.10
2018-05-24T03:51:13.437Z,10.10
2018-05-24T03:53:48.026Z,10.10
2018-05-24T03:56:22.529Z,10.20
2018-05-24T04:02:28.323Z,10.30
2018-05-24T04:05:02.888Z,10.40
2018-05-24T04:07:37.426Z,10.50
2018-05-24T04:10:12.048Z,10.60
2018-05-24T04:12:46.681Z,10.80
2018-05-24T04:15:21.122Z,10.80
2018-05-24T04:17:55.656Z,10.80
2018-05-24T04:20:30.226Z,11.00
2018-05-24T04:23:04.879Z,11.10
2018-05-24T04:25:39.435Z,11.30
2018-05-24T04:28:14.045Z,11.60
2018-05-24T04:30:48.596Z,11.80
2018-05-24T04:33:23.244Z,11.70
2018-05-24T04:35:57.725Z,11.70
2018-05-24T04:38:32.321Z,11.90
2018-05-24T04:41:06.762Z,11.90
2018-05-24T04:43:41.285Z,11.90
2018-05-24T04:46:15.825Z,12.10
2018-05-24T04:48:50.315Z,12.10
2018-05-24T04:51:24.766Z,12.20
2018-05-24T04:54:00.138Z,12.50
2018-05-24T04:56:34.767Z,12.50
2018-05-24T04:59:09.417Z,12.70
2018-05-24T05:01:44.156Z,12.90
2018-05-24T05:04:18.642Z,13.00
2018-05-24T05:06:53.258Z,13.00
2018-05-24T05:09:27.803Z,13.70
2018-05-24T05:12:02.276Z,14.70
2018-05-24T05:14:36.899Z,15.20
2018-05-24T05:17:11.457Z,15.20
2018-05-24T05:19:46.010Z,15.50
2018-05-24T05:22:20.614Z,15.90
2018-05-24T05:24:55.258Z,16.40
2018-05-24T05:27:29.702Z,16.80
2018-05-24T05:30:04.145Z,17.30
2018-05-24T05:32:39.376Z,17.70
2018-05-24T05:35:13.963Z,17.70
2018-05-24T05:37:48.613Z,17.90
2018-05-24T05:40:23.213Z,18.00
2018-05-24T05:42:57.801Z,18.10
2018-05-24T05:45:32.421Z,18.30
2018-05-24T05:48:07.067Z,18.50
2018-05-24T05:50:41.654Z,18.70
2018-05-24T05:53:16.176Z,18.90
2018-05-24T05:55:50.761Z,19.10
2018-05-24T05:58:25.345Z,19.00
2018-05-24T06:00:59.903Z,19.50
2018-05-24T06:03:34.510Z,19.60
2018-05-24T06:06:09.049Z,19.80
2018-05-24T06:08:43.667Z,19.70
2018-05-24T06:11:18.272Z,19.50
2018-05-24T06:13:52.874Z,19.80
2018-05-24T06:16:27.223Z,19.90
2018-05-24T06:19:01.795Z,20.10
2018-05-24T06:21:36.300Z,20.30
2018-05-24T06:24:11.068Z,20.50
2018-05-24T06:26:45.601Z,20.70
2018-05-24T06:29:20.946Z,20.80
2018-05-24T06:31:55.654Z,20.70
2018-05-24T06:34:30.178Z,20.70
2018-05-24T06:37:04.761Z,20.60
2018-05-24T06:39:39.233Z,20.60
2018-05-24T06:42:13.821Z,20.40
2018-05-24T06:44:48.374Z,20.30
2018-05-24T06:47:23.737Z,20.40
2018-05-24T06:49:59.047Z,20.30
2018-05-24T06:52:34.329Z,20.20
2018-05-24T06:55:08.935Z,20.20
2018-05-24T06:57:43.398Z,20.10
2018-05-24T07:00:17.997Z,20.20
2018-05-24T07:02:52.614Z,20.10
2018-05-24T07:05:27.129Z,20.00
2018-05-24T07:08:01.681Z,20.10
2018-05-24T07:10:36.295Z,20.00
2018-05-24T07:13:10.920Z,20.10
2018-05-24T07:15:45.547Z,20.20
2018-05-24T07:18:20.149Z,20.30
2018-05-24T07:20:55.383Z,20.40
2018-05-24T07:23:30.864Z,20.60
2018-05-24T07:26:05.464Z,20.60
2018-05-24T07:28:40.213Z,20.60
2018-05-24T07:31:14.823Z,20.60
2018-05-24T07:33:49.532Z,20.60
2018-05-24T07:36:23.977Z,20.60
2018-05-24T07:38:58.482Z,20.40
2018-05-24T07:41:32.979Z,20.40
2018-05-24T07:44:07.612Z,20.40
2018-05-24T07:46:42.243Z,20.40
2018-05-24T07:49:16.822Z,20.60
2018-05-24T07:51:52.306Z,20.60
2018-05-24T07:54:26.727Z,20.60
2018-05-24T07:57:01.287Z,20.80
2018-05-24T07:59:35.950Z,20.90
2018-05-24T08:02:11.046Z,20.90
2018-05-24T08:04:45.613Z,20.90
2018-05-24T08:07:20.188Z,20.90
2018-05-24T08:09:54.846Z,20.60
2018-05-24T08:12:29.430Z,20.60
2018-05-24T08:15:04.168Z,20.70
2018-05-24T08:17:38.659Z,20.90
2018-05-24T08:20:13.238Z,21.00
2018-05-24T08:22:47.825Z,21.10
2018-05-24T08:25:22.517Z,21.10
2018-05-24T08:27:57.093Z,21.10
2018-05-24T08:30:31.685Z,21.20
2018-05-24T08:33:06.937Z,21.40
2018-05-24T08:35:41.370Z,21.40
2018-05-24T08:38:15.967Z,21.30
2018-05-24T08:40:50.624Z,21.30
2018-05-24T08:43:25.729Z,21.50
2018-05-24T08:46:00.343Z,21.40
2018-05-24T08:48:34.892Z,21.50
2018-05-24T08:51:09.446Z,21.40
2018-05-24T08:53:44.828Z,21.50
2018-05-24T08:56:19.368Z,21.40
2018-05-24T08:58:53.916Z,21.60
2018-05-24T09:01:28.582Z,21.60
2018-05-24T09:04:03.153Z,21.50
2018-05-24T09:06:37.702Z,21.60
2018-05-24T09:09:12.331Z,21.80
2018-05-24T09:11:46.863Z,21.70
2018-05-24T09:14:21.446Z,21.80
2018-05-24T09:16:56.075Z,21.90
2018-05-24T09:19:31.322Z,21.90
2018-05-24T09:22:05.853Z,21.90
2018-05-24T09:24:41.168Z,22.10
2018-05-24T09:27:15.674Z,22.10
2018-05-24T09:29:50.331Z,22.30
2018-05-24T09:32:25.038Z,22.40
2018-05-24T09:34:59.585Z,22.50
2018-05-24T09:37:34.232Z,22.50
2018-05-24T09:40:08.700Z,22.40
2018-05-24T09:42:43.270Z,22.20
2018-05-24T09:45:17.802Z,22.30
2018-05-24T09:47:52.407Z,22.40
2018-05-24T09:50:27.045Z,22.50
2018-05-24T09:53:01.691Z,22.70
2018-05-24T09:55:36.173Z,22.60
2018-05-24T09:58:10.841Z,22.70
2018-05-24T10:00:45.326Z,22.60
2018-05-24T10:03:19.730Z,22.60
2018-05-24T10:05:54.271Z,22.70
2018-05-24T10:08:28.795Z,22.80
2018-05-24T10:11:03.321Z,23.30
2018-05-24T10:13:37.978Z,24.10
2018-05-24T10:16:13.385Z,25.10
2018-05-24T10:18:47.995Z,25.10
2018-05-24T10:21:22.837Z,25.30
2018-05-24T10:23:57.367Z,25.30
2018-05-24T10:26:32.067Z,25.50
2018-05-24T10:29:06.611Z,24.70
2018-05-24T10:31:41.330Z,24.00
2018-05-24T10:34:15.870Z,23.80
2018-05-24T10:36:50.469Z,23.60
2018-05-24T10:39:25.170Z,23.80
2018-05-24T10:41:59.761Z,23.90
2018-05-24T10:44:34.242Z,24.00
2018-05-24T10:47:08.732Z,24.10
2018-05-24T10:49:45.538Z,24.60
2018-05-24T10:52:20.137Z,25.20
2018-05-24T10:54:54.733Z,25.50
2018-05-24T10:57:29.298Z,24.80
2018-05-24T11:00:03.863Z,24.60
2018-05-24T11:02:38.558Z,24.80
2018-05-24T11:05:13.002Z,25.00
2018-05-24T11:07:47.590Z,24.90
2018-05-24T11:10:22.135Z,25.20
2018-05-24T11:12:56.658Z,25.30
2018-05-24T11:15:31.125Z,25.30
2018-05-24T11:18:05.705Z,25.00
2018-05-24T11:20:40.333Z,25.20
2018-05-24T11:23:14.798Z,25.30
2018-05-24T11:25:50.033Z,25.50
2018-05-24T11:28:24.483Z,25.40
2018-05-24T11:30:59.129Z,25.20
2018-05-24T11:33:34.368Z,25.60
2018-05-24T11:36:08.810Z,25.60
2018-05-24T11:38:43.426Z,25.40
2018-05-24T11:41:17.974Z,25.40
2018-05-24T11:43:52.569Z,25.60
2018-05-24T11:46:27.146Z,25.90
2018-05-24T11:49:01.626Z,25.40
2018-05-24T11:51:36.075Z,26.10
2018-05-24T11:54:10.666Z,25.90
2018-05-24T11:56:45.079Z,25.60
2018-05-24T11:59:19.503Z,25.90
2018-05-24T12:01:54.165Z,26.00
2018-05-24T12:04:29.387Z,25.70
2018-05-24T12:07:03.868Z,25.70
2018-05-24T12:09:38.397Z,26.00
2018-05-24T12:12:12.934Z,26.30
2018-05-24T12:14:47.326Z,26.20
2018-05-24T12:17:21.894Z,26.00
2018-05-24T12:19:56.519Z,26.00
2018-05-24T12:22:31.088Z,26.30
2018-05-24T12:25:05.541Z,26.30
2018-05-24T12:27:40.114Z,25.90
2018-05-24T12:30:15.416Z,26.50
2018-05-24T12:32:50.001Z,26.50
2018-05-24T12:35:24.659Z,26.40
2018-05-24T12:37:59.034Z,26.60
2018-05-24T12:40:33.621Z,26.40
2018-05-24T12:43:08.205Z,26.70
2018-05-24T12:45:43.359Z,26.10
2018-05-24T12:48:17.811Z,26.00
2018-05-24T12:50:52.496Z,26.30
2018-05-24T12:53:27.046Z,26.40
2018-05-24T12:56:01.555Z,26.40
2018-05-24T12:58:36.913Z,26.60
2018-05-24T13:01:11.468Z,26.60
2018-05-24T13:03:46.081Z,26.20
2018-05-24T13:06:20.678Z,26.00
2018-05-24T13:08:55.218Z,26.10
2018-05-24T13:11:30.528Z,26.00
2018-05-24T13:14:05.107Z,26.00
2018-05-24T13:16:39.721Z,26.40
2018-05-24T13:19:14.333Z,26.80
2018-05-24T13:21:48.908Z,26.90
2018-05-24T13:24:23.517Z,26.80
2018-05-24T13:26:58.018Z,26.40
2018-05-24T13:29:32.547Z,26.20
2018-05-24T13:32:07.012Z,26.30
2018-05-24T13:34:41.594Z,26.40
2018-05-24T13:37:16.206Z,26.90
2018-05-24T13:39:50.852Z,26.30
2018-05-24T13:42:25.401Z,26.00
2018-05-24T13:44:59.866Z,25.50
2018-05-24T13:47:34.264Z,24.90
2018-05-24T13:50:08.827Z,24.60
2018-05-24T13:52:43.522Z,24.20
2018-05-24T13:55:18.058Z,24.10
2018-05-24T13:57:52.655Z,23.90
2018-05-24T14:00:30.208Z,23.50
2018-05-24T14:03:04.662Z,23.40
2018-05-24T14:05:39.943Z,23.20
2018-05-24T14:08:14.457Z,23.10
2018-05-24T14:10:48.997Z,23.10
2018-05-24T14:13:23.590Z,23.00
2018-05-24T14:15:59.118Z,22.80
2018-05-24T14:18:33.514Z,22.70
2018-05-24T14:21:08.129Z,22.70
2018-05-24T14:23:42.808Z,22.60
2018-05-24T14:26:17.413Z,22.60
2018-05-24T14:28:51.962Z,22.40
2018-05-24T14:31:27.345Z,22.40
2018-05-24T14:34:01.824Z,22.30
2018-05-24T14:36:36.405Z,22.30
2018-05-24T14:39:11.709Z,22.10
2018-05-24T14:41:46.398Z,22.10
2018-05-24T14:44:20.949Z,22.10
2018-05-24T14:46:55.505Z,22.10
2018-05-24T14:49:30.089Z,22.10
2018-05-24T14:52:04.752Z,22.10
2018-05-24T14:54:39.281Z,22.10
2018-05-24T14:57:13.873Z,22.00
2018-05-24T14:59:48.499Z,21.80
2018-05-24T15:02:23.146Z,21.80
2018-05-24T15:04:57.698Z,21.80
2018-05-24T15:07:32.294Z,21.80
2018-05-24T15:10:06.829Z,21.80
2018-05-24T15:12:41.434Z,21.80
2018-05-24T15:15:15.798Z,21.70
2018-05-24T15:17:50.339Z,21.70
2018-05-24T15:20:24.882Z,21.70
2018-05-24T15:22:59.522Z,21.70
2018-05-24T15:25:34.057Z,21.60
2018-05-24T15:28:08.681Z,21.50
2018-05-24T15:30:43.151Z,21.40
2018-05-24T15:33:17.785Z,21.40
2018-05-24T15:35:52.314Z,21.50
2018-05-24T15:38:26.750Z,21.50
2018-05-24T15:41:02.182Z,21.20
2018-05-24T15:43:36.686Z,21.20
2018-05-24T15:46:11.250Z,21.30
2018-05-24T15:48:45.789Z,21.20
2018-05-24T15:51:21.102Z,21.10
2018-05-24T15:53:55.752Z,21.10
2018-05-24T15:56:30.438Z,21.10
2018-05-24T15:59:05.007Z,20.80
2018-05-24T16:01:39.578Z,20.90
2018-05-24T16:04:14.126Z,21.00
2018-05-24T16:06:48.715Z,21.00
2018-05-24T16:09:23.206Z,20.90
2018-05-24T16:11:57.755Z,20.80
2018-05-24T16:14:32.384Z,20.80
2018-05-24T16:17:06.958Z,20.70
2018-05-24T16:19:41.593Z,20.70
2018-05-24T16:22:16.121Z,20.70
2018-05-24T16:24:50.765Z,20.60
2018-05-24T16:27:25.221Z,20.40
2018-05-24T16:29:59.807Z,20.30
2018-05-24T16:32:34.386Z,20.30
2018-05-24T16:35:09.051Z,20.30
2018-05-24T16:37:43.485Z,20.30
2018-05-24T16:40:17.945Z,20.20
2018-05-24T16:42:52.505Z,20.30
2018-05-24T16:45:27.160Z,20.30
2018-05-24T16:48:01.527Z,20.40
2018-05-24T16:50:36.106Z,20.30
2018-05-24T16:53:10.658Z,20.30
2018-05-24T16:55:45.162Z,20.20
2018-05-24T16:58:19.715Z,20.10
2018-05-24T17:00:54.279Z,20.00
2018-05-24T17:03:28.743Z,19.90
2018-05-24T17:06:03.474Z,19.80
2018-05-24T17:08:37.921Z,19.90
2018-05-24T17:11:12.550Z,19.80
2018-05-24T17:13:47.181Z,19.80
2018-05-24T17:16:21.713Z,19.70
2018-05-24T17:18:56.358Z,19.70
2018-05-24T17:21:30.937Z,19.60
2018-05-24T17:24:05.579Z,19.60
2018-05-24T17:26:40.109Z,19.60
2018-05-24T17:29:14.633Z,19.60
2018-05-24T17:31:49.057Z,19.50
2018-05-24T17:34:23.669Z,19.40
2018-05-24T17:36:58.267Z,19.40
2018-05-24T17:39:32.658Z,19.30
2018-05-24T17:42:07.202Z,19.20
2018-05-24T17:44:41.641Z,19.10
2018-05-24T17:47:16.270Z,19.00
2018-05-24T17:49:50.802Z,18.90
2018-05-24T17:52:25.395Z,18.80
2018-05-24T17:54:59.916Z,18.80
2018-05-24T17:57:34.579Z,18.70
2018-05-24T18:00:09.119Z,18.70
2018-05-24T18:02:44.434Z,18.50
2018-05-24T18:05:18.899Z,18.50
2018-05-24T18:07:53.280Z,18.50
2018-05-24T18:10:27.793Z,18.40
2018-05-24T18:13:02.435Z,18.30
2018-05-24T18:15:36.948Z,18.30
2018-05-24T18:18:11.558Z,18.20
2018-05-24T18:20:46.787Z,17.90
2018-05-24T18:23:21.598Z,17.90
2018-05-24T18:25:56.114Z,17.80
2018-05-24T18:28:30.671Z,17.80
2018-05-24T18:31:05.188Z,17.70
2018-05-24T18:33:40.557Z,17.40
2018-05-24T18:36:15.202Z,17.40
2018-05-24T18:38:49.725Z,17.40
2018-05-24T18:41:24.355Z,17.30
2018-05-24T18:43:58.858Z,17.20
2018-05-24T18:46:33.506Z,17.10
2018-05-24T18:49:08.173Z,17.10
2018-05-24T18:51:43.530Z,17.00
2018-05-24T18:54:18.216Z,16.90
2018-05-24T18:56:52.647Z,16.80
2018-05-24T18:59:27.122Z,16.70
2018-05-24T19:02:01.542Z,16.70
2018-05-24T19:04:36.870Z,16.60
2018-05-24T19:07:11.502Z,16.60
2018-05-24T19:09:46.141Z,16.50
2018-05-24T19:12:20.627Z,16.50
2018-05-24T19:14:55.078Z,16.40
2018-05-24T19:17:29.643Z,16.40
2018-05-24T19:20:04.039Z,16.30
2018-05-24T19:22:38.608Z,16.20
2018-05-24T19:25:13.062Z,16.10
2018-05-24T19:27:47.450Z,16.00
2018-05-24T19:30:22.026Z,15.90
2018-05-24T19:32:56.586Z,15.90
2018-05-24T19:35:31.177Z,15.80
2018-05-24T19:38:05.852Z,15.70
2018-05-24T19:40:40.299Z,15.70
2018-05-24T19:43:14.892Z,15.70
2018-05-24T19:45:49.334Z,15.70
2018-05-24T19:48:23.797Z,15.60
2018-05-24T19:50:58.321Z,15.60
2018-05-24T19:53:33.695Z,15.50
2018-05-24T19:56:08.294Z,15.50
2018-05-24T19:58:42.718Z,15.50
2018-05-24T20:01:17.175Z,15.50
2018-05-24T20:03:51.701Z,15.40
2018-05-24T20:06:26.233Z,15.40
2018-05-24T20:09:00.891Z,15.40
2018-05-24T20:11:35.521Z,15.30
2018-05-24T20:14:09.992Z,15.20
2018-05-24T20:16:44.554Z,15.10
2018-05-24T20:19:19.122Z,15.00
2018-05-24T20:21:53.569Z,14.90
2018-05-24T20:24:27.973Z,14.80
2018-05-24T20:27:02.469Z,14.90
2018-05-24T20:29:37.021Z,14.90
2018-05-24T20:32:11.506Z,14.90
2018-05-24T20:34:45.893Z,14.80
2018-05-24T20:37:20.491Z,14.80
2018-05-24T20:39:54.952Z,14.80
2018-05-24T20:42:29.473Z,14.80
2018-05-24T20:45:04.061Z,14.80
2018-05-24T20:47:38.517Z,14.80
2018-05-24T20:50:12.941Z,14.90
2018-05-24T20:52:47.441Z,14.80
2018-05-24T20:55:22.058Z,14.80
2018-05-24T20:57:56.589Z,14.80
2018-05-24T21:00:31.086Z,14.80
2018-05-24T21:03:05.538Z,14.80
2018-05-24T21:05:40.173Z,14.80
2018-05-24T21:08:14.671Z,14.70
2018-05-24T21:10:49.190Z,14.60
2018-05-24T21:13:23.645Z,14.60
2018-05-24T21:15:58.118Z,14.50
2018-05-24T21:18:32.532Z,14.40
2018-05-24T21:21:07.079Z,14.50
2018-05-24T21:23:41.791Z,14.40
2018-05-24T21:26:16.289Z,14.30
2018-05-24T21:28:50.758Z,14.30
2018-05-24T21:31:25.297Z,14.30
2018-05-24T21:34:00.635Z,14.30
2018-05-24T21:36:35.133Z,14.30
2018-05-24T21:39:09.722Z,14.20
2018-05-24T21:41:44.077Z,14.20
2018-05-24T21:44:18.766Z,14.10
2018-05-24T21:46:53.317Z,14.00
2018-05-24T21:49:27.738Z,14.10
2018-05-24T21:52:02.135Z,14.00
2018-05-24T21:54:36.722Z,13.90
2018-05-24T21:57:11.317Z,13.80
2018-05-24T21:59:45.877Z,13.70
2018-05-24T22:02:20.454Z,13.80
2018-05-24T22:04:54.882Z,13.70
2018-05-24T22:07:29.477Z,13.60
2018-05-24T22:10:03.938Z,13.60
2018-05-24T22:12:39.287Z,13.50
2018-05-24T22:15:13.853Z,13.40
2018-05-24T22:17:48.450Z,13.40
2018-05-24T22:20:23.070Z,13.40
2018-05-24T22:22:57.683Z,13.30
2018-05-24T22:25:32.257Z,13.40
2018-05-24T22:28:06.910Z,13.50
2018-05-24T22:30:41.430Z,13.50
2018-05-24T22:33:15.998Z,13.50
2018-05-24T22:35:50.647Z,13.50
2018-05-24T22:38:26.211Z,13.40
2018-05-24T22:41:00.869Z,13.50
2018-05-24T22:43:35.421Z,13.40
2018-05-24T22:46:10.731Z,13.50
2018-05-24T22:48:46.068Z,13.50
2018-05-24T22:51:20.542Z,13.50
2018-05-24T22:53:55.125Z,13.40
2018-05-24T22:56:29.678Z,13.40
2018-05-24T22:59:04.961Z,13.40
2018-05-24T23:01:39.457Z,13.40
2018-05-24T23:04:14.049Z,13.50
2018-05-24T23:06:48.622Z,13.40
2018-05-24T23:09:23.159Z,13.40
2018-05-24T23:11:58.522Z,13.40
2018-05-24T23:14:32.965Z,13.40
2018-05-24T23:17:07.446Z,13.40
2018-05-24T23:19:42.020Z,13.40
2018-05-24T23:22:29.220Z,13.40
2018-05-24T23:25:03.860Z,13.40
2018-05-24T23:27:38.444Z,13.30
2018-05-24T23:30:13.066Z,13.20
2018-05-24T23:32:47.629Z,13.20
2018-05-24T23:35:22.195Z,13.20
2018-05-24T23:37:56.870Z,13.20
2018-05-24T23:40:31.272Z,13.20
2018-05-24T23:43:05.789Z,13.10
2018-05-24T23:45:40.312Z,13.00
2018-05-24T23:48:14.761Z,13.00
2018-05-24T23:50:49.330Z,13.00
2018-05-24T23:53:23.946Z,13.00
2018-05-24T23:55:58.537Z,13.00
2018-05-24T23:58:33.926Z,13.00
